Airfield :
LOGIN :

Register | Disclaimer

   EN    FR    IT 

 










Legend :    VFR   Marginal VFR   IFR   Intensive IFR   Very Intensive IFR
Visi :
Ceiling :
>= 8 km
>= 3000ft
5 to 8 km
1000 to 3000 ft
1500m to 5 km
500 to 1000 ft
800 to 1500m
200 to 500 ft
< 800m
< 200 ft
Symbols :   Thunderstorms  Fog  Heavy snow  Heavy precipitations  Wind > 20 kt
SIGMETs :     Misc.  Thunderstorms  Icing  Turbulence  Mountain Waves  Volcanic Ashes






- Airport Elevation : 1411 ft
- IATA code : GVA


LSGG - Genève Cointrin

CURRENT METAR :
  • 300350Z AUTO 05007KT 360V110 9999 BKN015 07/04 Q1017 NOSIG

EXPIRED METARs :
  • 300320Z AUTO 05005KT 020V110 9999 BKN015 07/04 Q1017 NOSIG
  • 300250Z AUTO 05005KT 020V090 9999 BKN015 SCT028 07/04 Q1017 NOSIG
  • 300220Z AUTO 05005KT 020V080 9999 BKN015 07/05 Q1017 NOSIG
  • 300150Z AUTO VRB01KT 9999 BKN016 SCT027 07/05 Q1017 NOSIG
  • 300120Z AUTO 03003KT 9999 BKN017 SCT023 07/05 Q1017 NOSIG

TAF TAF LSGG
Valid from the 30 at 03:00 until the 01 at 09:00 UTC


300225Z 3003/0109 VRB02KT 9999 BKN014 TX09/3015Z TN03/3006Z TN03/0106Z
BECMG 3008/3010 05012KT BKN030
ATIS : +41 22 417 40 81



MET'MAP, your aeronautical weather chart ! - Copyright ORBIFLY December 2007 - Disclaimer

ORBIFLY MET'MAP TEAM :

Programming & Development : Alexandra Zaïnal
Original concept : Baudouin d'Aumeries
Technical & hardware support : Manuel Goepfert
Assistance : Marc-Olivier Méhu




SOURCES & CREDITS :

   NOAA